New York, NY (10157)

1:42 PM EST on January 30, 2015 (GMT -0500)
Murray Hill | Change Station
CLOSE
Current Station
Personal Weather Station
Location: New York, NY
Elevation: 98 ft
Nearby Weather Stations
Active Advisory: Wind Advisory

Elev 98 ft 40.75 °N, 73.98 °W | Updated 8 seconds ago

Overcast
Overcast
36.7 °F
Feels Like 29 °F
N
11.0
Wind Variable Wind from ENE
Gusts 24.0 mph

Today
High -- | Low -- °F
--% Chance of Precip.
Yesterday
High -- | Low -- °F
Precip. -- in
7:08 AM 5:10 PM
Waxing Gibbous, 84% visible
Pressure 29.83 in
Visibility 10.0 miles
Clouds Scattered Clouds 3500 ft
Mostly Cloudy 4200 ft
Overcast 7500 ft
Windchill 29 °F
Dew Point 25 °F
Humidity 62%
Rainfall 0.07 in
Snow Depth Not available.
UV 1 out of 12
Pollen .10 out of 12
Air Quality Not available.
Flu Activity Not available.
METAR KNYC 301751Z AUTO 30010G16KT 280V340 10SM SCT035 BKN042 OVC075 03/M06 A2985 RMK AO2 SLP100 60001 T00331061 10033 20000 58014

More Conditions Fewer Conditions

Pressure 29.83 in
Visibility 10.0 miles
Clouds Scattered Clouds 3500 ft
Mostly Cloudy 4200 ft
Overcast 7500 ft
Windchill 29 °F
Dew Point 25 °F
Humidity 62%
Rainfall 0.07 in
Snow Depth Not available.
UV 1 out of 12
Pollen .10 out of 12
Air Quality Not available.
Flu Activity Not available.
METAR KNYC 301751Z AUTO 30010G16KT 280V340 10SM SCT035 BKN042 OVC075 03/M06 A2985 RMK AO2 SLP100 60001 T00331061 10033 20000 58014

More Conditions Fewer Conditions

10-Day Weather Forecast

Almanac

Astronomy

Jan. 30, 2015 Rise Set
Actual Time
Civil Twilight
Nautical Twilight
Astronomical Twilight
Moon
Length of Visible Light
Length of Day
Tomorrow will be .
, % of the Moon is Illuminated

Today's Extremes

State Highs State Lows

Community

WunderPhotos

Upload Photos

1,791,859 photos uploaded!

WunderBlogs® & News

Nearby

Air Quality

  Air Quality AQ Index Pollutant
Not available.

Snow Depth

Station Depth Elevation

Earthquake Activity

City Distance Mag. Time & Date
Minimum magnitude displayed is 2.5.

Coastal Water Temperatures

Place Temperature

Nearby Weather Stations